Time;durP1;ratioP1;P1;durP2;ratioP2;P2;SDS_P1;SDS_P2;PMS_P1;PMS_P2;Temp;Humidity;BMP_temperature;BMP_pressure;BME280_temperature;BME280_humidity;BME280_pressure;Samples;Min_cycle;Max_cycle;Signal;HPM_P1;HPM_P2
2022/08/19 00:01:45;;;;;;;14.95;9.48;;;;;;;20.58;96.40;98246.28;4987910;28;20035;-62
2022/08/19 00:04:13;;;;;;;11.73;8.88;;;;;;;20.59;96.29;98244.34;4986376;28;20027;-62
2022/08/19 00:06:40;;;;;;;16.13;9.60;;;;;;;20.56;96.24;98232.00;4988442;28;20026;-62
2022/08/19 00:09:07;;;;;;;13.93;10.02;;;;;;;20.56;97.13;98231.16;4995846;28;20030;-62
2022/08/19 00:11:35;;;;;;;12.13;8.95;;;;;;;20.53;97.53;98231.72;4985540;28;20029;-62
2022/08/19 00:14:01;;;;;;;12.60;9.68;;;;;;;20.47;96.90;98228.16;4991083;28;20077;-62
2022/08/19 00:16:27;;;;;;;11.35;8.68;;;;;;;20.60;96.82;98247.94;5023116;28;20018;-62
2022/08/19 00:18:56;;;;;;;11.73;9.60;;;;;;;20.61;96.98;98244.88;4987695;28;20540;-62
2022/08/19 00:21:23;;;;;;;15.32;9.80;;;;;;;20.56;96.98;98242.97;4988287;28;20112;-62
2022/08/19 00:23:48;;;;;;;13.38;9.50;;;;;;;20.54;96.83;98238.88;4986201;28;20025;-64
2022/08/19 00:26:14;;;;;;;10.60;8.57;;;;;;;20.48;97.80;98246.28;4989876;28;20037;-62
2022/08/19 00:28:39;;;;;;;14.20;9.63;;;;;;;20.35;98.67;98242.22;4990269;28;20331;-62
2022/08/19 00:31:06;;;;;;;14.40;9.25;;;;;;;20.41;98.92;98248.53;4989052;28;20386;-62
2022/08/19 00:33:32;;;;;;;12.50;9.95;;;;;;;20.38;99.10;98242.75;4987503;28;20042;-62
2022/08/19 00:36:05;;;;;;;13.25;9.80;;;;;;;20.35;99.73;98244.16;4984667;28;20405;-62
2022/08/19 00:38:30;;;;;;;13.63;9.10;;;;;;;20.37;99.20;98239.19;5019237;28;20028;-62
2022/08/19 00:40:56;;;;;;;12.75;9.93;;;;;;;20.36;99.33;98238.38;4989287;28;20022;-62
2022/08/19 00:43:25;;;;;;;14.18;10.80;;;;;;;20.30;100.00;98227.69;4985032;28;20079;-62
2022/08/19 00:45:51;;;;;;;;;;;;;;;20.27;100.00;98220.81;5018538;28;20034;-62
2022/08/19 00:48:18;;;;;;;13.18;10.00;;;;;;;20.24;100.00;98210.41;4991033;28;20282;-62
2022/08/19 00:50:44;;;;;;;17.25;10.07;;;;;;;20.24;100.00;98207.66;4987663;28;20026;-62
2022/08/19 00:53:17;;;;;;;13.70;10.27;;;;;;;20.22;100.00;98209.84;5021609;28;20018;-62
2022/08/19 00:55:46;;;;;;;14.70;10.40;;;;;;;20.20;100.00;98222.22;4992082;28;20478;-62
2022/08/19 00:58:15;;;;;;;13.65;10.10;;;;;;;20.20;100.00;98245.03;4995024;28;20040;-62
2022/08/19 01:00:41;;;;;;;14.30;9.82;;;;;;;20.22;100.00;98236.50;4990392;28;20030;-62
2022/08/19 01:03:09;;;;;;;17.35;9.93;;;;;;;20.22;100.00;98231.03;4989977;28;20017;-62
2022/08/19 01:05:36;;;;;;;15.32;9.68;;;;;;;20.21;100.00;98230.19;4987818;28;20030;-62
2022/08/19 01:08:04;;;;;;;14.07;10.98;;;;;;;20.21;100.00;98235.69;4991776;28;20042;-62
2022/08/19 01:10:35;;;;;;;13.07;9.48;;;;;;;20.18;100.00;98239.00;4978885;28;20023;-62
2022/08/19 01:13:03;;;;;;;13.50;9.95;;;;;;;20.18;100.00;98241.75;4986039;28;20057;-62
2022/08/19 01:15:33;;;;;;;17.58;9.45;;;;;;;20.19;100.00;98250.81;4990483;28;20037;-62
2022/08/19 01:18:04;;;;;;;14.25;10.35;;;;;;;20.22;100.00;98248.31;4984704;28;20042;-62
2022/08/19 01:20:29;;;;;;;13.40;9.70;;;;;;;20.22;100.00;98242.81;4991380;28;20074;-62
2022/08/19 01:22:58;;;;;;;14.57;10.18;;;;;;;20.12;100.00;98231.88;4990983;28;20129;-62
2022/08/19 01:25:31;;;;;;;14.87;10.50;;;;;;;20.17;100.00;98242.84;4993131;28;20023;-62
2022/08/19 01:27:57;;;;;;;11.85;9.45;;;;;;;20.16;100.00;98243.13;4990820;28;20031;-62
2022/08/19 01:30:32;;;;;;;14.65;11.00;;;;;;;20.13;100.00;98233.53;4988935;28;20022;-62
2022/08/19 01:33:00;;;;;;;15.38;10.32;;;;;;;20.17;100.00;98242.84;5021415;28;20054;-62
2022/08/19 01:35:28;;;;;;;13.10;10.00;;;;;;;20.18;100.00;98236.25;5023113;28;20028;-62
2022/08/19 01:37:58;;;;;;;15.73;10.60;;;;;;;20.14;100.00;98229.66;4990536;28;20027;-62
2022/08/19 01:40:29;;;;;;;13.57;10.27;;;;;;;20.13;100.00;98239.03;5025543;28;20273;-62
2022/08/19 01:42:55;;;;;;;14.13;10.50;;;;;;;20.11;100.00;98228.31;4995106;28;20026;-62
2022/08/19 01:45:23;;;;;;;14.38;9.90;;;;;;;20.07;100.00;98237.41;4988101;28;20382;-62
2022/08/19 01:47:49;;;;;;;14.82;10.13;;;;;;;20.07;100.00;98234.66;4992209;28;20034;-62
2022/08/19 01:50:15;;;;;;;14.27;10.35;;;;;;;20.03;100.00;98228.88;5027068;28;20389;-62
2022/08/19 01:52:42;;;;;;;14.35;10.48;;;;;;;20.01;100.00;98238.50;4994856;28;20466;-62
2022/08/19 01:55:11;;;;;;;18.27;10.68;;;;;;;19.96;100.00;98238.50;4995391;28;20038;-62
2022/08/19 01:57:39;;;;;;;14.15;10.88;;;;;;;19.88;100.00;98235.22;4991405;28;20490;-62
2022/08/19 02:00:08;;;;;;;15.23;10.55;;;;;;;19.86;100.00;98222.91;4992658;28;20033;-62
2022/08/19 02:02:33;;;;;;;14.98;10.50;;;;;;;19.85;100.00;98222.06;4994657;28;20109;-62
2022/08/19 02:04:59;;;;;;;14.80;11.27;;;;;;;19.83;100.00;98224.28;4997515;28;20499;-62
2022/08/19 02:07:24;;;;;;;15.55;11.57;;;;;;;19.79;100.00;98219.63;4992808;28;20108;-62
2022/08/19 02:09:50;;;;;;;15.93;11.45;;;;;;;19.79;100.00;98236.91;4984671;28;20034;-62
2022/08/19 02:12:16;;;;;;;13.85;10.90;;;;;;;19.83;100.00;98227.03;5018881;23;20500;-58
2022/08/19 02:14:42;;;;;;;14.93;11.02;;;;;;;19.83;100.00;98240.75;5025708;28;20037;-57
2022/08/19 02:17:07;;;;;;;15.25;10.63;;;;;;;19.82;100.00;98238.28;5001079;28;20040;-57
2022/08/19 02:19:32;;;;;;;15.50;11.45;;;;;;;19.77;100.00;98241.03;5000183;28;20024;-58
2022/08/19 02:21:59;;;;;;;15.73;10.57;;;;;;;19.79;100.00;98239.66;5015564;28;20064;-58
2022/08/19 02:24:25;;;;;;;16.02;11.30;;;;;;;19.76;100.00;98234.72;5004217;28;20041;-57
2022/08/19 02:26:51;;;;;;;16.48;11.27;;;;;;;19.76;100.00;98234.72;5020906;28;20033;-57
2022/08/19 02:29:16;;;;;;;15.98;11.70;;;;;;;19.72;100.00;98236.34;5024292;28;20022;-57
2022/08/19 02:31:42;;;;;;;16.25;11.50;;;;;;;19.74;100.00;98242.41;5007682;28;20116;-57
2022/08/19 02:34:07;;;;;;;14.93;11.18;;;;;;;19.76;100.00;98242.13;5003746;28;20120;-57
2022/08/19 02:36:33;;;;;;;16.00;10.98;;;;;;;19.70;100.00;98247.63;5006561;28;20418;-57
2022/08/19 02:38:58;;;;;;;16.73;11.65;;;;;;;19.65;100.00;98241.31;5024178;28;20068;-58
2022/08/19 02:41:32;;;;;;;16.50;10.48;;;;;;;19.68;100.00;98251.75;5006917;28;20026;-59
2022/08/19 02:44:00;;;;;;;19.60;12.50;;;;;;;19.66;100.00;98246.53;5005354;28;20026;-58
2022/08/19 02:46:29;;;;;;;18.90;11.90;;;;;;;19.63;100.00;98251.72;5020894;28;20137;-57
2022/08/19 02:48:57;;;;;;;17.27;12.45;;;;;;;19.61;100.00;98242.94;5007440;28;20549;-58
2022/08/19 02:51:34;;;;;;;16.45;12.10;;;;;;;19.61;100.00;98242.94;5010751;28;21337;-58
2022/08/19 02:54:00;;;;;;;17.10;11.43;;;;;;;19.59;100.00;98245.13;5024733;28;20041;-57
2022/08/19 02:56:27;;;;;;;18.15;11.60;;;;;;;19.61;100.00;98243.75;5000171;28;20085;-57
2022/08/19 02:58:54;;;;;;;21.38;12.50;;;;;;;19.56;100.00;98235.53;5005503;28;20029;-58
2022/08/19 03:01:27;;;;;;;17.38;12.20;;;;;;;19.57;100.00;98239.94;5016489;28;20053;-62
2022/08/19 03:03:53;;;;;;;18.83;12.13;;;;;;;19.61;100.00;98232.78;5006535;28;20470;-66
2022/08/19 03:06:20;;;;;;;23.10;12.40;;;;;;;19.57;100.00;98225.38;5006545;28;20029;-58
2022/08/19 03:08:47;;;;;;;19.70;13.25;;;;;;;19.58;100.00;98227.84;5023128;28;20119;-57
2022/08/19 03:11:20;;;;;;;19.73;13.20;;;;;;;19.54;100.00;98228.66;5021869;28;20030;-58
2022/08/19 03:13:48;;;;;;;21.90;12.20;;;;;;;19.49;100.00;98227.59;5017732;28;20116;-62
2022/08/19 03:16:15;;;;;;;19.38;12.82;;;;;;;19.45;100.00;98229.22;5012668;28;20061;-57
2022/08/19 03:18:41;;;;;;;18.85;12.00;;;;;;;19.51;100.00;98229.22;5018689;28;20495;-58
2022/08/19 03:21:08;;;;;;;22.33;13.90;;;;;;;19.51;100.00;98232.78;5024858;28;20048;-57
2022/08/19 03:23:34;;;;;;;18.52;12.27;;;;;;;19.49;100.00;98238.56;5006036;28;20041;-57
2022/08/19 03:26:04;;;;;;;21.42;13.15;;;;;;;19.47;100.00;98239.94;5017808;28;20038;-58
2022/08/19 03:28:30;;;;;;;21.83;13.90;;;;;;;19.47;100.00;98248.16;5013068;28;20030;-57
2022/08/19 03:31:06;;;;;;;21.05;13.07;;;;;;;19.50;100.00;98253.09;5005113;28;20060;-57
2022/08/19 03:33:32;;;;;;;21.70;13.73;;;;;;;19.46;100.00;98247.31;5003310;28;20014;-58
2022/08/19 03:36:02;;;;;;;22.80;13.93;;;;;;;19.46;100.00;98258.28;5021242;28;20026;-57
2022/08/19 03:38:28;;;;;;;21.67;13.70;;;;;;;19.46;100.00;98257.47;5008391;28;20040;-57
2022/08/19 03:40:53;;;;;;;19.45;13.13;;;;;;;19.46;100.00;98255.56;5016073;28;20033;-58
2022/08/19 03:43:19;;;;;;;19.50;12.70;;;;;;;19.45;100.00;98248.44;5017927;28;20053;-57
2022/08/19 03:45:44;;;;;;;19.58;13.35;;;;;;;19.44;100.00;98244.06;5000119;28;20057;-57
2022/08/19 03:48:09;;;;;;;21.15;13.40;;;;;;;19.43;100.00;98239.66;5004419;28;20076;-57
2022/08/19 03:50:39;;;;;;;21.73;12.90;;;;;;;19.43;100.00;98252.53;5009009;28;20113;-58
2022/08/19 03:53:04;;;;;;;21.52;13.45;;;;;;;19.41;100.00;98244.59;4998443;28;20144;-57
2022/08/19 03:55:30;;;;;;;24.42;13.52;;;;;;;19.40;100.00;98248.44;5019854;28;20030;-57
2022/08/19 03:57:56;;;;;;;21.80;13.52;;;;;;;19.41;100.00;98243.75;5000130;28;20548;-58
2022/08/19 04:00:21;;;;;;;25.67;14.88;;;;;;;19.45;100.00;98253.09;5009185;28;20414;-57
2022/08/19 04:02:47;;;;;;;21.70;13.73;;;;;;;19.45;100.00;98242.13;5004510;28;20046;-58
2022/08/19 04:05:13;;;;;;;22.83;14.55;;;;;;;19.54;100.00;98243.19;4996561;28;20026;-57
2022/08/19 04:07:39;;;;;;;24.05;15.20;;;;;;;19.52;100.00;98247.31;5005153;28;20473;-57
2022/08/19 04:10:06;;;;;;;28.02;15.52;;;;;;;19.65;100.00;98244.88;5022282;28;20034;-58
2022/08/19 04:12:32;;;;;;;24.55;14.52;;;;;;;19.66;100.00;98248.41;5023549;28;20025;-57
2022/08/19 04:14:58;;;;;;;28.77;15.43;;;;;;;19.73;100.00;98243.50;5024997;28;20030;-57
2022/08/19 04:17:23;;;;;;;27.13;15.57;;;;;;;19.78;100.00;98240.75;5019096;28;20025;-57
2022/08/19 04:19:49;;;;;;;25.88;15.48;;;;;;;19.83;100.00;98240.75;5004452;28;20084;-57
2022/08/19 04:22:14;;;;;;;23.35;14.73;;;;;;;19.80;100.00;98246.78;5019545;28;20053;-57
2022/08/19 04:24:40;;;;;;;26.63;15.05;;;;;;;19.71;100.00;98248.44;5004473;28;20084;-58
2022/08/19 04:27:10;;;;;;;32.83;15.48;;;;;;;19.64;100.00;98245.13;5022434;28;20029;-57
2022/08/19 04:29:39;;;;;;;24.30;14.70;;;;;;;19.66;100.00;98251.16;5008461;28;20070;-57
2022/08/19 04:32:05;;;;;;;24.38;15.02;;;;;;;19.64;100.00;98240.44;5007120;28;20030;-57
2022/08/19 04:34:30;;;;;;;25.73;15.45;;;;;;;19.63;100.00;98244.31;5007880;28;20095;-58
2022/08/19 04:36:57;;;;;;;23.88;14.93;;;;;;;19.68;100.00;98246.25;5020656;28;20545;-57
2022/08/19 04:45:09;;;;;;;22.23;13.77;;;;;;;19.56;100.00;98240.19;5006825;28;20087;-58
2022/08/19 04:47:36;;;;;;;24.83;14.55;;;;;;;19.61;100.00;98248.44;5023862;28;20037;-62
2022/08/19 04:50:07;;;;;;;24.13;14.73;;;;;;;19.63;100.00;98246.25;5025504;28;20026;-59
2022/08/19 04:52:33;;;;;;;26.77;15.55;;;;;;;19.57;100.00;98250.06;5011668;28;20033;-59
2022/08/19 04:55:03;;;;;;;23.83;14.93;;;;;;;19.60;100.00;98257.78;5027992;28;20030;-59
2022/08/19 04:57:28;;;;;;;23.52;14.43;;;;;;;19.57;100.00;98259.16;5023531;28;20108;-59
2022/08/19 04:59:55;;;;;;;23.58;14.75;;;;;;;19.66;100.00;98264.88;5009941;28;20591;-59
2022/08/19 05:02:24;;;;;;;21.63;13.52;;;;;;;19.71;100.00;98259.44;5016220;28;20444;-59
2022/08/19 05:04:49;;;;;;;;;;;;;;;19.77;100.00;98266.53;5009727;28;20014;-59
2022/08/19 05:07:15;;;;;;;22.10;14.85;;;;;;;19.83;100.00;98267.34;5008796;28;19928;-59
2022/08/19 05:09:40;;;;;;;24.00;14.50;;;;;;;19.86;100.00;98273.13;5026062;28;20057;-59
2022/08/19 05:12:06;;;;;;;20.98;13.65;;;;;;;19.97;100.00;98270.38;5022911;28;20018;-59
2022/08/19 05:14:31;;;;;;;20.33;14.13;;;;;;;19.95;100.00;98269.81;5010342;28;20374;-60
2022/08/19 05:16:57;;;;;;;23.63;14.10;;;;;;;19.93;100.00;98273.66;5007329;28;20500;-59
2022/08/19 05:25:11;;;;;;;22.05;14.13;;;;;;;20.09;100.00;98292.84;4956618;28;20065;-59
2022/08/19 05:27:37;;;;;;;25.38;14.85;;;;;;;20.10;100.00;98289.84;5004630;28;20030;-60
2022/08/19 05:30:04;;;;;;;26.40;15.63;;;;;;;20.06;100.00;98298.91;5008000;28;20081;-60
2022/08/19 05:32:29;;;;;;;28.38;16.35;;;;;;;20.11;100.00;98301.63;5007394;28;20097;-59
2022/08/19 05:34:55;;;;;;;25.42;15.50;;;;;;;20.08;100.00;98305.75;5005922;28;20131;-59
2022/08/19 05:37:21;;;;;;;23.42;15.50;;;;;;;20.04;100.00;98321.16;5010938;28;20026;-60
2022/08/19 05:39:46;;;;;;;24.58;15.30;;;;;;;19.98;100.00;98325.00;5009267;28;20064;-59
2022/08/19 05:42:12;;;;;;;26.42;16.55;;;;;;;19.91;100.00;98333.53;5019806;28;20430;-59
2022/08/19 05:44:44;;;;;;;21.02;15.32;;;;;;;19.85;100.00;98336.53;5024026;28;20026;-59
2022/08/19 05:47:11;;;;;;;23.15;14.75;;;;;;;19.88;100.00;98345.03;5024601;28;20026;-59
2022/08/19 05:49:38;;;;;;;21.75;14.70;;;;;;;19.94;100.00;98343.13;5017850;28;20033;-59
2022/08/19 05:52:05;;;;;;;23.02;14.93;;;;;;;19.90;100.00;98345.59;5022166;28;20030;-59
2022/08/19 05:54:31;;;;;;;22.33;14.90;;;;;;;19.88;100.00;98342.28;5000560;28;20053;-60
2022/08/19 05:56:56;;;;;;;24.08;15.85;;;;;;;19.87;100.00;98354.38;5008680;28;20037;-59
2022/08/19 05:59:23;;;;;;;25.45;15.95;;;;;;;19.88;100.00;98358.75;5007774;28;20034;-59
2022/08/19 06:01:50;;;;;;;27.42;15.80;;;;;;;19.91;100.00;98358.25;5005817;28;20044;-59
2022/08/19 06:04:18;;;;;;;25.15;16.08;;;;;;;19.92;100.00;98359.88;4998931;28;20045;-60
2022/08/19 06:06:44;;;;;;;23.73;14.77;;;;;;;19.98;100.00;98354.38;5017422;28;20696;-59
2022/08/19 06:09:10;;;;;;;25.52;15.77;;;;;;;20.02;100.00;98358.25;4999705;28;20104;-59
2022/08/19 06:11:43;;;;;;;21.98;15.25;;;;;;;20.05;100.00;98365.91;5001552;28;20448;-59
2022/08/19 06:14:11;;;;;;;21.88;14.60;;;;;;;20.06;100.00;98348.34;5005827;28;20080;-59
2022/08/19 06:16:39;;;;;;;23.33;14.85;;;;;;;20.12;100.00;98355.44;5003074;28;20017;-59
2022/08/19 06:19:08;;;;;;;20.73;14.65;;;;;;;20.09;100.00;98356.81;5018339;28;20040;-59
2022/08/19 06:21:36;;;;;;;19.92;14.48;;;;;;;20.09;100.00;98353.25;5023955;28;20024;-59
2022/08/19 06:24:04;;;;;;;23.30;14.75;;;;;;;20.11;100.00;98362.88;5010909;28;20033;-59
2022/08/19 06:26:30;;;;;;;20.55;14.65;;;;;;;20.20;100.00;98359.56;5004948;28;20026;-59
2022/08/19 06:28:55;;;;;;;21.70;15.13;;;;;;;20.24;100.00;98356.00;5002043;28;20036;-59
2022/08/19 06:31:27;;;;;;;22.65;14.70;;;;;;;20.32;100.00;98352.69;5021206;28;20021;-59
2022/08/19 06:33:53;;;;;;;21.13;14.23;;;;;;;20.53;100.00;98358.13;5017463;28;20029;-59
2022/08/19 06:36:26;;;;;;;20.38;15.32;;;;;;;20.57;100.00;98353.75;4998991;28;20021;-59
2022/08/19 06:38:52;;;;;;;26.98;14.95;;;;;;;20.62;100.00;98342.75;5016360;28;20049;-59
2022/08/19 06:41:18;;;;;;;25.98;15.65;;;;;;;20.78;100.00;98346.28;5002306;28;20067;-61
2022/08/19 06:43:43;;;;;;;22.50;15.35;;;;;;;20.94;100.00;98339.59;5006324;28;20029;-61
2022/08/19 06:46:11;;;;;;;20.25;15.07;;;;;;;20.95;100.00;98352.22;5004953;28;20042;-59
2022/08/19 06:48:37;;;;;;;20.70;15.02;;;;;;;21.02;100.00;98355.50;5007569;28;20034;-62
2022/08/19 06:51:03;;;;;;;23.48;15.35;;;;;;;21.19;100.00;98359.81;5002736;28;20493;-60
2022/08/19 06:53:29;;;;;;;21.58;14.20;;;;;;;21.38;98.14;98357.28;5003916;28;20026;-60
2022/08/19 06:55:59;;;;;;;19.67;13.73;;;;;;;21.41;97.02;98356.69;5004082;28;20196;-59
2022/08/19 06:58:25;;;;;;;23.23;15.10;;;;;;;21.46;96.55;98356.66;5013174;28;20030;-59
2022/08/19 07:00:51;;;;;;;18.55;14.10;;;;;;;21.62;94.68;98354.63;5008351;28;20029;-59
2022/08/19 07:03:17;;;;;;;21.50;14.25;;;;;;;21.75;93.59;98351.22;5003347;28;20370;-59
2022/08/19 07:05:43;;;;;;;21.10;15.00;;;;;;;21.79;98.16;98348.69;5005252;28;20029;-59
2022/08/19 07:08:09;;;;;;;24.92;15.48;;;;;;;21.83;100.00;98342.34;5022435;28;20084;-60
2022/08/19 07:10:36;;;;;;;22.02;14.68;;;;;;;21.91;98.31;98323.56;5000543;28;20549;-59
2022/08/19 07:13:03;;;;;;;20.17;14.50;;;;;;;21.81;97.21;98357.50;5022209;28;20067;-60
2022/08/19 07:15:29;;;;;;;19.58;14.20;;;;;;;21.83;97.31;98366.31;5006525;28;20037;-60
2022/08/19 07:17:56;;;;;;;21.20;13.98;;;;;;;21.94;100.00;98364.28;5019708;28;20034;-60
2022/08/19 07:20:21;;;;;;;19.98;14.35;;;;;;;21.99;96.33;98356.78;5018057;28;20026;-60
2022/08/19 07:22:47;;;;;;;19.25;14.05;;;;;;;21.99;96.60;98356.78;5002352;28;20033;-59
2022/08/19 07:25:13;;;;;;;20.55;14.07;;;;;;;21.95;93.94;98371.44;5006386;28;20037;-59
2022/08/19 07:27:38;;;;;;;22.02;14.30;;;;;;;22.05;92.99;98365.84;5025864;28;20026;-59
2022/08/19 07:30:04;;;;;;;24.63;14.18;;;;;;;21.87;94.55;98370.09;5006095;28;20034;-59
2022/08/19 07:32:30;;;;;;;21.33;13.25;;;;;;;21.84;95.72;98377.00;5003956;28;20025;-59
2022/08/19 07:34:56;;;;;;;21.70;13.70;;;;;;;21.67;96.00;98374.69;5002578;28;20476;-59
2022/08/19 07:37:21;;;;;;;18.85;13.25;;;;;;;21.71;95.67;98371.34;5017941;28;20044;-59
2022/08/19 07:39:47;;;;;;;20.05;13.25;;;;;;;21.80;94.80;98372.41;5021432;28;20088;-59
2022/08/19 07:42:14;;;;;;;21.60;12.93;;;;;;;21.68;94.09;98372.75;5007394;28;20026;-60
2022/08/19 07:44:40;;;;;;;19.33;12.88;;;;;;;21.62;96.80;98376.66;5017184;28;20486;-59
2022/08/19 07:47:06;;;;;;;16.30;11.77;;;;;;;21.61;96.94;98372.22;5007238;28;20069;-59
2022/08/19 07:49:32;;;;;;;21.63;12.27;;;;;;;21.59;96.93;98380.78;4994400;28;20141;-59
2022/08/19 07:52:01;;;;;;;21.45;12.85;;;;;;;21.55;96.30;98379.72;5006696;28;20029;-59
2022/08/19 07:54:30;;;;;;;19.10;12.27;;;;;;;21.58;94.97;98384.63;5008587;28;20033;-59
2022/08/19 07:56:56;;;;;;;19.00;12.47;;;;;;;21.56;95.67;98380.53;5024027;28;20071;-59
2022/08/19 07:59:23;;;;;;;17.10;12.45;;;;;;;21.48;96.63;98381.94;5018195;28;20022;-58
2022/08/19 08:01:49;;;;;;;19.48;11.90;;;;;;;21.60;96.08;98379.69;5003780;28;20026;-59
2022/08/19 08:09:46;;;;;;;24.35;13.38;;;;;;;21.56;96.81;98378.63;5002096;28;20037;-59
2022/08/19 08:12:18;;;;;;;21.55;12.30;;;;;;;21.66;96.09;98381.28;5042028;23;20045;-62
2022/08/19 08:14:49;;;;;;;18.38;11.85;;;;;;;21.71;94.68;98379.59;5030495;28;20475;-62
2022/08/19 08:17:16;;;;;;;18.88;11.65;;;;;;;21.81;94.47;98388.59;5022243;28;20021;-60
2022/08/19 08:19:43;;;;;;;21.13;11.82;;;;;;;21.74;95.27;98387.28;5029645;28;20039;-60
2022/08/19 08:23:22;;;;;;;16.52;11.38;;;;;;;21.84;94.75;98387.22;5026936;28;20491;-60
2022/08/19 08:25:10;;;;;;;18.83;11.68;;;;;;;21.98;93.21;98388.22;5049083;28;20447;-60
2022/08/19 08:27:39;;;;;;;17.17;11.95;;;;;;;22.09;91.89;98398.03;5028180;28;20021;-60
2022/08/19 08:30:09;;;;;;;;;;;;;;;22.26;90.44;98400.38;5028247;28;20083;-60
2022/08/19 08:32:36;;;;;;;17.35;10.93;;;;;;;22.44;89.33;98387.81;5030656;28;19955;-62
2022/08/19 08:35:04;;;;;;;19.75;11.82;;;;;;;22.49;87.80;98387.75;5034458;28;20090;-62
2022/08/19 08:37:30;;;;;;;18.48;12.50;;;;;;;22.55;86.71;98396.78;5035612;28;20021;-62
2022/08/19 08:39:55;;;;;;;23.05;11.90;;;;;;;22.52;88.40;98387.16;5034337;28;20498;-63
2022/08/19 08:42:27;;;;;;;20.45;11.68;;;;;;;22.66;86.02;98397.50;5048613;28;20075;-63
2022/08/19 08:45:03;;;;;;;30.02;11.18;;;;;;;22.74;85.14;98394.09;5037530;28;20039;-63
2022/08/19 08:47:36;;;;;;;22.33;11.40;;;;;;;22.71;85.23;98394.69;5032142;28;20469;-63
2022/08/19 08:50:08;;;;;;;19.27;11.02;;;;;;;22.71;85.75;98394.69;5036046;28;20037;-62
2022/08/19 08:52:41;;;;;;;17.67;10.88;;;;;;;22.71;85.79;98395.50;5042831;28;20024;-62
2022/08/19 08:55:11;;;;;;;20.88;10.88;;;;;;;22.92;83.60;98379.56;5033241;28;20488;-62
2022/08/19 08:57:54;;;;;;;16.58;10.23;;;;;;;23.23;81.43;98390.22;5034585;28;20033;-62
2022/08/19 09:00:26;;;;;;;24.27;11.10;;;;;;;23.50;78.24;98378.56;5029060;28;20392;-62
2022/08/19 09:02:53;;;;;;;18.92;10.75;;;;;;;23.97;75.87;98378.66;5033083;28;20028;-62
2022/08/19 09:05:21;;;;;;;25.83;10.90;;;;;;;24.55;70.90;98375.47;5042329;28;20032;-62
2022/08/19 09:08:00;;;;;;;17.08;10.07;;;;;;;25.01;68.53;98377.31;5030265;28;20440;-62
2022/08/19 09:10:37;;;;;;;16.55;9.50;;;;;;;25.53;65.07;98366.78;5031027;28;20029;-62
2022/08/19 09:13:25;;;;;;;14.40;8.68;;;;;;;25.42;65.33;98373.69;5029841;28;20068;-62
2022/08/19 09:16:05;;;;;;;13.40;9.45;;;;;;;25.22;66.33;98372.19;5034034;28;20040;-62
2022/08/19 09:18:47;;;;;;;18.70;9.98;;;;;;;24.91;68.09;98377.50;5046609;28;20103;-63
2022/08/19 09:21:14;;;;;;;18.20;9.63;;;;;;;24.89;67.44;98329.97;5026752;28;20055;-62
2022/08/19 09:23:39;;;;;;;14.43;9.25;;;;;;;24.80;68.78;98373.31;5028944;28;20028;-62
2022/08/19 09:26:16;;;;;;;13.80;9.32;;;;;;;24.73;69.57;98375.66;5034473;28;20388;-62
2022/08/19 09:28:43;;;;;;;12.02;8.93;;;;;;;24.51;71.56;98379.97;5052035;28;20028;-64
2022/08/19 09:31:15;;;;;;;13.55;9.10;;;;;;;24.21;73.68;98395.97;5032592;28;20112;-64
2022/08/19 09:33:43;;;;;;;13.98;9.05;;;;;;;24.10;74.93;98386.19;5030649;28;20583;-64
2022/08/19 09:36:10;;;;;;;12.00;8.68;;;;;;;24.01;74.90;98388.81;5035406;28;20036;-65
2022/08/19 09:38:40;;;;;;;14.60;9.93;;;;;;;23.81;77.31;98398.25;5034258;28;20016;-64
2022/08/19 09:41:13;;;;;;;16.25;9.68;;;;;;;23.53;78.97;98389.00;5034098;28;20032;-64
2022/08/19 09:43:38;;;;;;;14.93;8.98;;;;;;;23.39;80.11;98386.13;5034676;28;20052;-64
2022/08/19 09:46:06;;;;;;;12.40;8.32;;;;;;;23.26;81.72;98392.38;5030398;28;20056;-64
2022/08/19 09:48:35;;;;;;;17.65;9.85;;;;;;;23.26;81.86;98391.56;5029389;28;20024;-66
2022/08/19 09:51:11;;;;;;;15.95;8.57;;;;;;;23.24;82.67;98385.53;5028295;28;20029;-62
2022/08/19 09:53:37;;;;;;;15.98;9.00;;;;;;;23.26;82.69;98388.81;5023067;28;20025;-63
2022/08/19 09:56:05;;;;;;;9.75;7.47;;;;;;;23.37;82.39;98393.91;5028527;28;20140;-62
2022/08/19 09:58:31;;;;;;;11.45;8.00;;;;;;;23.48;81.45;98393.78;5031466;28;20029;-63
2022/08/19 10:00:59;;;;;;;13.70;8.77;;;;;;;23.39;81.53;98393.59;5029519;28;20017;-63
2022/08/19 10:03:26;;;;;;;18.33;8.38;;;;;;;23.19;83.94;98397.47;5031585;28;20099;-63
2022/08/19 10:05:52;;;;;;;14.90;8.27;;;;;;;22.95;86.29;98401.03;5042204;28;20036;-63
2022/08/19 10:08:22;;;;;;;11.57;8.13;;;;;;;22.99;85.91;98397.72;5028191;28;20783;-63
2022/08/19 10:10:49;;;;;;;12.75;8.70;;;;;;;22.87;88.37;98400.84;5029001;28;20033;-63
2022/08/19 10:13:17;;;;;;;13.27;8.85;;;;;;;22.85;88.46;98398.41;5032350;28;20146;-63
2022/08/19 10:15:43;;;;;;;13.70;8.13;;;;;;;22.84;88.56;98395.94;5046333;28;20383;-63
2022/08/19 10:18:08;;;;;;;11.90;8.60;;;;;;;22.84;88.79;98393.97;5027424;28;20039;-63
2022/08/19 10:20:35;;;;;;;12.25;8.40;;;;;;;23.00;87.91;98386.38;5024816;28;20140;-63
2022/08/19 10:23:01;;;;;;;15.07;8.80;;;;;;;23.18;86.20;98382.81;5045878;28;20036;-62
2022/08/19 10:25:27;;;;;;;16.98;8.77;;;;;;;23.52;82.21;98384.56;5037806;28;20032;-63
2022/08/19 10:27:53;;;;;;;12.93;7.68;;;;;;;23.99;78.95;98379.19;5045372;28;20021;-62
2022/08/19 10:30:18;;;;;;;11.18;7.70;;;;;;;24.58;74.04;98374.03;5032500;28;20692;-63
2022/08/19 10:32:45;;;;;;;12.60;7.65;;;;;;;24.91;71.33;98377.50;5040386;28;20131;-62
2022/08/19 10:35:12;;;;;;;8.82;7.10;;;;;;;25.61;67.28;98375.50;5024751;28;20044;-63
2022/08/19 10:37:37;;;;;;;12.88;7.40;;;;;;;26.05;64.62;98371.13;5026439;28;20089;-62
2022/08/19 10:40:06;;;;;;;10.05;6.63;;;;;;;26.17;63.52;98368.59;5027095;28;20248;-63
2022/08/19 10:42:32;;;;;;;9.60;7.10;;;;;;;26.23;62.59;98364.56;5026806;28;20045;-63
2022/08/19 10:44:57;;;;;;;11.20;7.10;;;;;;;26.12;63.73;98377.88;5027531;28;20083;-63
2022/08/19 10:47:23;;;;;;;9.63;6.45;;;;;;;25.97;63.16;98370.75;5036719;28;20021;-63
2022/08/19 10:52:33;;;;;;;9.15;5.45;;;;;;;25.78;61.92;98357.06;5040676;28;20064;-63
2022/08/19 10:57:44;;;;;;;8.45;5.53;;;;;;;25.49;61.31;98363.03;5048039;28;20082;-62
2022/08/19 11:00:10;;;;;;;8.20;5.88;;;;;;;25.52;61.92;98362.38;5029546;28;20028;-63
2022/08/19 11:02:36;;;;;;;8.95;5.32;;;;;;;25.31;62.37;98364.00;5031452;28;20021;-63
2022/08/19 11:05:01;;;;;;;9.73;5.20;;;;;;;25.13;62.11;98369.31;5032215;28;20082;-63
2022/08/19 11:07:26;;;;;;;10.00;4.50;;;;;;;25.26;62.94;98370.44;5027513;28;20036;-64
2022/08/19 11:09:52;;;;;;;5.95;4.20;;;;;;;25.38;61.84;98358.00;5026195;28;20476;-63
2022/08/19 11:12:19;;;;;;;7.22;4.55;;;;;;;25.45;60.51;98362.00;5021981;28;20029;-63
2022/08/19 11:14:44;;;;;;;6.30;4.28;;;;;;;25.73;59.67;98356.38;5028886;28;20026;-63
2022/08/19 11:17:13;;;;;;;5.63;4.05;;;;;;;26.03;57.69;98349.25;5031617;28;20033;-63
2022/08/19 11:19:38;;;;;;;6.07;3.95;;;;;;;26.30;56.53;98351.03;5030081;28;20024;-63
2022/08/19 11:22:09;;;;;;;7.60;4.63;;;;;;;26.57;55.23;98349.28;5026833;28;20029;-63
2022/08/19 11:24:35;;;;;;;5.35;3.53;;;;;;;26.79;55.68;98354.72;5037220;28;20138;-63
2022/08/19 11:27:08;;;;;;;9.80;3.90;;;;;;;26.73;54.51;98358.81;5026927;28;20535;-63
2022/08/19 11:29:36;;;;;;;6.72;3.55;;;;;;;26.97;54.38;98352.84;5037753;28;20033;-63
2022/08/19 11:32:05;;;;;;;4.55;3.50;;;;;;;26.98;54.62;98345.31;5030794;28;20036;-63
2022/08/19 11:34:30;;;;;;;5.38;3.45;;;;;;;27.09;54.04;98349.41;5028582;28;20289;-63
2022/08/19 11:36:58;;;;;;;4.88;3.65;;;;;;;27.12;54.08;98343.25;5024601;28;20032;-63
2022/08/19 11:39:25;;;;;;;6.90;3.53;;;;;;;27.16;52.85;98341.44;5023374;28;20119;-63
2022/08/19 11:41:51;;;;;;;5.55;3.42;;;;;;;27.14;52.54;98346.50;5027148;28;20029;-63